sensor_id;sensor_type;location;lat;lon;timestamp;temperature;humidity
6174;DHT22;3120;48.796;9.796;2023-04-25T00:00:50;7.70;99.90
6174;DHT22;3120;48.796;9.796;2023-04-25T00:03:17;7.70;99.90
6174;DHT22;3120;48.796;9.796;2023-04-25T00:05:43;7.70;99.90
6174;DHT22;3120;48.796;9.796;2023-04-25T00:08:10;7.80;99.90
6174;DHT22;3120;48.796;9.796;2023-04-25T00:10:36;7.80;99.90
6174;DHT22;3120;48.796;9.796;2023-04-25T00:13:01;7.80;99.90
6174;DHT22;3120;48.796;9.796;2023-04-25T00:15:28;7.80;99.90
6174;DHT22;3120;48.796;9.796;2023-04-25T00:17:56;7.90;99.90
6174;DHT22;3120;48.796;9.796;2023-04-25T00:20:22;7.90;99.90
6174;DHT22;3120;48.796;9.796;2023-04-25T00:22:49;7.90;99.90
6174;DHT22;3120;48.796;9.796;2023-04-25T00:25:14;7.90;99.90
6174;DHT22;3120;48.796;9.796;2023-04-25T00:27:40;7.90;99.90
6174;DHT22;3120;48.796;9.796;2023-04-25T00:30:07;7.90;99.90
6174;DHT22;3120;48.796;9.796;2023-04-25T00:32:33;7.80;99.90
6174;DHT22;3120;48.796;9.796;2023-04-25T00:34:59;7.80;99.90
6174;DHT22;3120;48.796;9.796;2023-04-25T00:37:25;7.80;99.90
6174;DHT22;3120;48.796;9.796;2023-04-25T00:39:51;7.80;99.90
6174;DHT22;3120;48.796;9.796;2023-04-25T00:42:16;7.80;99.90
6174;DHT22;3120;48.796;9.796;2023-04-25T00:44:43;7.80;99.90
6174;DHT22;3120;48.796;9.796;2023-04-25T00:47:08;7.90;99.90
6174;DHT22;3120;48.796;9.796;2023-04-25T00:49:36;8.20;99.90
6174;DHT22;3120;48.796;9.796;2023-04-25T00:52:01;8.00;99.90
6174;DHT22;3120;48.796;9.796;2023-04-25T00:54:27;7.90;99.90
6174;DHT22;3120;48.796;9.796;2023-04-25T00:56:53;7.90;99.90
6174;DHT22;3120;48.796;9.796;2023-04-25T00:59:19;7.90;99.90
6174;DHT22;3120;48.796;9.796;2023-04-25T01:01:46;7.80;99.90
6174;DHT22;3120;48.796;9.796;2023-04-25T01:04:12;7.80;99.90
6174;DHT22;3120;48.796;9.796;2023-04-25T01:06:38;7.70;99.90
6174;DHT22;3120;48.796;9.796;2023-04-25T01:09:04;7.70;99.90
6174;DHT22;3120;48.796;9.796;2023-04-25T01:11:30;7.80;99.90
6174;DHT22;3120;48.796;9.796;2023-04-25T01:13:56;7.80;99.90
6174;DHT22;3120;48.796;9.796;2023-04-25T01:16:22;7.80;99.90
6174;DHT22;3120;48.796;9.796;2023-04-25T01:18:49;7.90;99.90
6174;DHT22;3120;48.796;9.796;2023-04-25T01:21:16;7.80;99.90
6174;DHT22;3120;48.796;9.796;2023-04-25T01:23:42;7.80;99.90
6174;DHT22;3120;48.796;9.796;2023-04-25T01:26:11;7.70;99.90
6174;DHT22;3120;48.796;9.796;2023-04-25T01:28:38;7.70;99.90
6174;DHT22;3120;48.796;9.796;2023-04-25T01:31:06;7.60;99.90
6174;DHT22;3120;48.796;9.796;2023-04-25T01:33:32;7.60;99.90
6174;DHT22;3120;48.796;9.796;2023-04-25T01:35:58;7.40;99.90
6174;DHT22;3120;48.796;9.796;2023-04-25T01:38:23;7.40;99.90
6174;DHT22;3120;48.796;9.796;2023-04-25T01:40:51;7.30;99.90
6174;DHT22;3120;48.796;9.796;2023-04-25T01:43:17;7.20;99.90
6174;DHT22;3120;48.796;9.796;2023-04-25T01:45:43;7.20;99.90
6174;DHT22;3120;48.796;9.796;2023-04-25T01:50:39;7.20;99.90
6174;DHT22;3120;48.796;9.796;2023-04-25T01:53:05;7.20;99.90
6174;DHT22;3120;48.796;9.796;2023-04-25T01:55:31;7.30;99.90
6174;DHT22;3120;48.796;9.796;2023-04-25T01:57:56;7.30;99.90
6174;DHT22;3120;48.796;9.796;2023-04-25T02:00:22;7.30;99.90
6174;DHT22;3120;48.796;9.796;2023-04-25T02:02:48;8.30;99.90
6174;DHT22;3120;48.796;9.796;2023-04-25T02:05:16;7.30;99.90
6174;DHT22;3120;48.796;9.796;2023-04-25T02:07:42;7.30;99.90
6174;DHT22;3120;48.796;9.796;2023-04-25T02:10:08;7.40;99.90
6174;DHT22;3120;48.796;9.796;2023-04-25T02:12:34;7.30;99.90
6174;DHT22;3120;48.796;9.796;2023-04-25T02:15:00;7.30;99.90
6174;DHT22;3120;48.796;9.796;2023-04-25T02:17:26;7.30;99.90
6174;DHT22;3120;48.796;9.796;2023-04-25T02:19:51;7.20;99.90
6174;DHT22;3120;48.796;9.796;2023-04-25T02:22:17;7.20;99.90
6174;DHT22;3120;48.796;9.796;2023-04-25T02:24:42;7.20;99.90
6174;DHT22;3120;48.796;9.796;2023-04-25T02:27:08;7.20;99.90
6174;DHT22;3120;48.796;9.796;2023-04-25T02:29:34;7.20;99.90
6174;DHT22;3120;48.796;9.796;2023-04-25T02:31:59;7.30;99.90
6174;DHT22;3120;48.796;9.796;2023-04-25T02:34:25;7.30;99.90
6174;DHT22;3120;48.796;9.796;2023-04-25T02:36:50;7.30;99.90
6174;DHT22;3120;48.796;9.796;2023-04-25T02:39:16;7.30;99.90
6174;DHT22;3120;48.796;9.796;2023-04-25T02:41:42;7.30;99.90
6174;DHT22;3120;48.796;9.796;2023-04-25T02:44:07;7.30;99.90
6174;DHT22;3120;48.796;9.796;2023-04-25T02:46:33;7.20;99.90
6174;DHT22;3120;48.796;9.796;2023-04-25T02:48:59;7.20;99.90
6174;DHT22;3120;48.796;9.796;2023-04-25T02:51:24;8.00;99.90
6174;DHT22;3120;48.796;9.796;2023-04-25T02:53:50;7.00;99.90
6174;DHT22;3120;48.796;9.796;2023-04-25T02:56:15;7.00;99.90
6174;DHT22;3120;48.796;9.796;2023-04-25T02:58:41;7.00;99.90
6174;DHT22;3120;48.796;9.796;2023-04-25T03:01:07;6.90;99.90
6174;DHT22;3120;48.796;9.796;2023-04-25T03:03:32;6.90;99.90
6174;DHT22;3120;48.796;9.796;2023-04-25T03:05:58;6.90;99.90
6174;DHT22;3120;48.796;9.796;2023-04-25T03:08:23;6.80;99.90
6174;DHT22;3120;48.796;9.796;2023-04-25T03:10:50;6.80;99.90
6174;DHT22;3120;48.796;9.796;2023-04-25T03:13:17;6.90;99.90
6174;DHT22;3120;48.796;9.796;2023-04-25T03:15:43;6.80;99.90
6174;DHT22;3120;48.796;9.796;2023-04-25T03:18:09;6.80;99.90
6174;DHT22;3120;48.796;9.796;2023-04-25T03:20:34;6.80;99.90
6174;DHT22;3120;48.796;9.796;2023-04-25T03:23:00;6.90;99.90
6174;DHT22;3120;48.796;9.796;2023-04-25T03:25:26;6.80;99.90
6174;DHT22;3120;48.796;9.796;2023-04-25T03:27:51;6.80;99.90
6174;DHT22;3120;48.796;9.796;2023-04-25T03:30:17;6.70;99.90
6174;DHT22;3120;48.796;9.796;2023-04-25T03:32:42;6.70;99.90
6174;DHT22;3120;48.796;9.796;2023-04-25T03:35:08;6.70;99.90
6174;DHT22;3120;48.796;9.796;2023-04-25T03:37:34;6.80;99.90
6174;DHT22;3120;48.796;9.796;2023-04-25T03:40:00;6.80;99.90
6174;DHT22;3120;48.796;9.796;2023-04-25T03:42:25;7.20;99.90
6174;DHT22;3120;48.796;9.796;2023-04-25T03:44:51;7.00;99.90
6174;DHT22;3120;48.796;9.796;2023-04-25T03:47:17;7.10;99.90
6174;DHT22;3120;48.796;9.796;2023-04-25T03:49:43;7.10;99.90
6174;DHT22;3120;48.796;9.796;2023-04-25T03:52:09;8.30;99.90
6174;DHT22;3120;48.796;9.796;2023-04-25T03:54:35;7.20;99.90
6174;DHT22;3120;48.796;9.796;2023-04-25T03:57:00;7.20;99.90
6174;DHT22;3120;48.796;9.796;2023-04-25T03:59:26;7.20;99.90
6174;DHT22;3120;48.796;9.796;2023-04-25T04:01:52;7.20;99.90
6174;DHT22;3120;48.796;9.796;2023-04-25T04:04:18;7.30;99.90
6174;DHT22;3120;48.796;9.796;2023-04-25T04:06:44;7.30;99.90
6174;DHT22;3120;48.796;9.796;2023-04-25T04:09:11;7.40;99.90
6174;DHT22;3120;48.796;9.796;2023-04-25T04:11:38;7.40;99.90
6174;DHT22;3120;48.796;9.796;2023-04-25T04:14:07;7.40;99.90
6174;DHT22;3120;48.796;9.796;2023-04-25T04:16:32;7.40;99.90
6174;DHT22;3120;48.796;9.796;2023-04-25T04:18:58;7.40;99.90
6174;DHT22;3120;48.796;9.796;2023-04-25T04:21:24;7.40;99.90
6174;DHT22;3120;48.796;9.796;2023-04-25T04:23:49;7.40;99.90
6174;DHT22;3120;48.796;9.796;2023-04-25T04:26:15;7.50;99.90
6174;DHT22;3120;48.796;9.796;2023-04-25T04:28:42;7.50;99.90
6174;DHT22;3120;48.796;9.796;2023-04-25T04:31:10;7.60;99.90
6174;DHT22;3120;48.796;9.796;2023-04-25T04:33:35;7.60;99.90
6174;DHT22;3120;48.796;9.796;2023-04-25T04:36:02;7.60;99.90
6174;DHT22;3120;48.796;9.796;2023-04-25T04:38:29;7.70;99.90
6174;DHT22;3120;48.796;9.796;2023-04-25T04:40:54;7.60;99.90
6174;DHT22;3120;48.796;9.796;2023-04-25T04:43:21;7.70;99.90
6174;DHT22;3120;48.796;9.796;2023-04-25T04:45:48;7.70;99.90
6174;DHT22;3120;48.796;9.796;2023-04-25T04:48:15;7.70;99.90
6174;DHT22;3120;48.796;9.796;2023-04-25T04:50:43;7.70;99.90
6174;DHT22;3120;48.796;9.796;2023-04-25T04:53:10;7.80;99.90
6174;DHT22;3120;48.796;9.796;2023-04-25T04:55:37;7.80;99.90
6174;DHT22;3120;48.796;9.796;2023-04-25T04:58:02;7.70;99.90
6174;DHT22;3120;48.796;9.796;2023-04-25T05:00:28;7.80;99.90
6174;DHT22;3120;48.796;9.796;2023-04-25T05:02:55;7.80;99.90
6174;DHT22;3120;48.796;9.796;2023-04-25T05:05:21;7.80;99.90
6174;DHT22;3120;48.796;9.796;2023-04-25T05:07:46;7.90;99.90
6174;DHT22;3120;48.796;9.796;2023-04-25T05:10:12;7.90;99.90
6174;DHT22;3120;48.796;9.796;2023-04-25T05:12:37;8.00;99.90
6174;DHT22;3120;48.796;9.796;2023-04-25T05:15:03;8.80;99.90
6174;DHT22;3120;48.796;9.796;2023-04-25T05:17:29;8.00;99.90
6174;DHT22;3120;48.796;9.796;2023-04-25T05:19:55;8.00;99.90
6174;DHT22;3120;48.796;9.796;2023-04-25T05:22:20;8.10;99.90
6174;DHT22;3120;48.796;9.796;2023-04-25T05:24:46;8.00;99.90
6174;DHT22;3120;48.796;9.796;2023-04-25T05:27:13;8.90;99.90
6174;DHT22;3120;48.796;9.796;2023-04-25T05:29:39;8.10;99.90
6174;DHT22;3120;48.796;9.796;2023-04-25T05:32:05;8.10;99.90
6174;DHT22;3120;48.796;9.796;2023-04-25T05:34:30;8.00;99.90
6174;DHT22;3120;48.796;9.796;2023-04-25T05:36:56;8.00;99.90
6174;DHT22;3120;48.796;9.796;2023-04-25T05:39:22;8.10;99.90
6174;DHT22;3120;48.796;9.796;2023-04-25T05:41:47;8.10;99.90
6174;DHT22;3120;48.796;9.796;2023-04-25T05:44:13;8.10;99.90
6174;DHT22;3120;48.796;9.796;2023-04-25T05:46:38;8.10;99.90
6174;DHT22;3120;48.796;9.796;2023-04-25T05:49:04;8.10;99.90
6174;DHT22;3120;48.796;9.796;2023-04-25T05:51:30;8.10;99.90
6174;DHT22;3120;48.796;9.796;2023-04-25T05:53:56;8.10;99.90
6174;DHT22;3120;48.796;9.796;2023-04-25T05:56:22;8.20;99.90
6174;DHT22;3120;48.796;9.796;2023-04-25T05:58:47;8.20;99.90
6174;DHT22;3120;48.796;9.796;2023-04-25T06:01:13;8.20;99.90
6174;DHT22;3120;48.796;9.796;2023-04-25T06:03:39;8.30;99.90
6174;DHT22;3120;48.796;9.796;2023-04-25T06:06:08;8.40;99.90
6174;DHT22;3120;48.796;9.796;2023-04-25T06:08:34;8.50;99.90
6174;DHT22;3120;48.796;9.796;2023-04-25T06:11:00;8.70;99.90
6174;DHT22;3120;48.796;9.796;2023-04-25T06:13:26;8.90;91.50
6174;DHT22;3120;48.796;9.796;2023-04-25T06:15:51;9.10;16.80
6174;DHT22;3120;48.796;9.796;2023-04-25T06:18:17;9.30;1.00
6174;DHT22;3120;48.796;9.796;2023-04-25T06:20:42;9.60;1.00
6174;DHT22;3120;48.796;9.796;2023-04-25T06:23:08;9.70;99.90
6174;DHT22;3120;48.796;9.796;2023-04-25T06:25:37;10.20;99.90
6174;DHT22;3120;48.796;9.796;2023-04-25T06:28:02;10.20;1.00
6174;DHT22;3120;48.796;9.796;2023-04-25T06:30:28;10.20;99.90
6174;DHT22;3120;48.796;9.796;2023-04-25T06:32:54;10.10;1.00
6174;DHT22;3120;48.796;9.796;2023-04-25T06:35:22;10.00;99.90
6174;DHT22;3120;48.796;9.796;2023-04-25T06:37:48;10.00;16.20
6174;DHT22;3120;48.796;9.796;2023-04-25T06:40:14;10.40;99.90
6174;DHT22;3120;48.796;9.796;2023-04-25T06:42:40;11.20;1.00
6174;DHT22;3120;48.796;9.796;2023-04-25T06:45:06;11.60;1.00
6174;DHT22;3120;48.796;9.796;2023-04-25T06:47:31;10.60;99.90
6174;DHT22;3120;48.796;9.796;2023-04-25T06:49:57;10.40;99.90
6174;DHT22;3120;48.796;9.796;2023-04-25T06:52:23;10.30;1.00
6174;DHT22;3120;48.796;9.796;2023-04-25T06:54:48;10.20;78.80
6174;DHT22;3120;48.796;9.796;2023-04-25T06:57:14;10.80;99.90
6174;DHT22;3120;48.796;9.796;2023-04-25T06:59:40;9.90;1.00
6174;DHT22;3120;48.796;9.796;2023-04-25T07:02:05;10.60;1.00
6174;DHT22;3120;48.796;9.796;2023-04-25T07:04:31;12.40;1.00
6174;DHT22;3120;48.796;9.796;2023-04-25T07:06:57;12.90;99.90
6174;DHT22;3120;48.796;9.796;2023-04-25T07:09:22;11.90;99.90
6174;DHT22;3120;48.796;9.796;2023-04-25T07:11:48;12.00;99.90
6174;DHT22;3120;48.796;9.796;2023-04-25T07:14:14;12.10;92.50
6174;DHT22;3120;48.796;9.796;2023-04-25T07:16:40;12.10;99.90
6174;DHT22;3120;48.796;9.796;2023-04-25T07:19:06;12.10;37.20
6174;DHT22;3120;48.796;9.796;2023-04-25T07:21:31;12.40;1.00
6174;DHT22;3120;48.796;9.796;2023-04-25T07:23:57;11.50;92.10
6174;DHT22;3120;48.796;9.796;2023-04-25T07:26:23;11.10;99.90
6174;DHT22;3120;48.796;9.796;2023-04-25T07:28:49;11.00;99.90
6174;DHT22;3120;48.796;9.796;2023-04-25T07:31:17;11.50;99.90
6174;DHT22;3120;48.796;9.796;2023-04-25T07:33:44;11.80;85.30
6174;DHT22;3120;48.796;9.796;2023-04-25T07:36:10;12.00;1.00
6174;DHT22;3120;48.796;9.796;2023-04-25T07:38:36;12.60;1.00
6174;DHT22;3120;48.796;9.796;2023-04-25T07:41:01;12.50;1.00
6174;DHT22;3120;48.796;9.796;2023-04-25T07:43:27;12.70;1.00
6174;DHT22;3120;48.796;9.796;2023-04-25T07:45:53;12.80;99.90
6174;DHT22;3120;48.796;9.796;2023-04-25T07:48:19;12.60;1.00
6174;DHT22;3120;48.796;9.796;2023-04-25T07:50:45;12.40;1.00
6174;DHT22;3120;48.796;9.796;2023-04-25T07:53:10;12.20;1.00
6174;DHT22;3120;48.796;9.796;2023-04-25T07:55:36;12.00;1.00
6174;DHT22;3120;48.796;9.796;2023-04-25T07:58:05;11.70;1.00
6174;DHT22;3120;48.796;9.796;2023-04-25T08:00:31;11.40;99.90
6174;DHT22;3120;48.796;9.796;2023-04-25T08:02:56;11.90;99.90
6174;DHT22;3120;48.796;9.796;2023-04-25T08:05:22;11.10;99.90
6174;DHT22;3120;48.796;9.796;2023-04-25T08:07:48;11.80;1.00
6174;DHT22;3120;48.796;9.796;2023-04-25T08:10:13;10.70;1.00
6174;DHT22;3120;48.796;9.796;2023-04-25T08:12:39;10.70;1.00
6174;DHT22;3120;48.796;9.796;2023-04-25T08:15:05;10.60;99.90
6174;DHT22;3120;48.796;9.796;2023-04-25T08:17:31;10.60;1.00
6174;DHT22;3120;48.796;9.796;2023-04-25T08:19:57;10.70;1.00
6174;DHT22;3120;48.796;9.796;2023-04-25T08:22:22;10.70;52.20
6174;DHT22;3120;48.796;9.796;2023-04-25T08:24:48;10.80;99.90
6174;DHT22;3120;48.796;9.796;2023-04-25T08:27:14;11.00;1.00
6174;DHT22;3120;48.796;9.796;2023-04-25T08:29:39;10.90;1.00
6174;DHT22;3120;48.796;9.796;2023-04-25T08:32:05;11.00;1.00
6174;DHT22;3120;48.796;9.796;2023-04-25T08:34:31;11.10;1.00
6174;DHT22;3120;48.796;9.796;2023-04-25T08:36:56;11.10;1.00
6174;DHT22;3120;48.796;9.796;2023-04-25T08:39:22;11.00;1.00
6174;DHT22;3120;48.796;9.796;2023-04-25T08:41:47;11.30;1.00
6174;DHT22;3120;48.796;9.796;2023-04-25T08:44:13;10.40;99.90
6174;DHT22;3120;48.796;9.796;2023-04-25T08:46:40;10.40;1.00
6174;DHT22;3120;48.796;9.796;2023-04-25T08:49:07;10.30;99.90
6174;DHT22;3120;48.796;9.796;2023-04-25T08:51:36;10.30;1.00
6174;DHT22;3120;48.796;9.796;2023-04-25T08:54:11;10.30;99.90
6174;DHT22;3120;48.796;9.796;2023-04-25T08:56:47;10.40;99.90
6174;DHT22;3120;48.796;9.796;2023-04-25T08:59:13;10.50;1.00
6174;DHT22;3120;48.796;9.796;2023-04-25T09:01:39;10.60;99.90
6174;DHT22;3120;48.796;9.796;2023-04-25T09:04:05;10.70;1.00
6174;DHT22;3120;48.796;9.796;2023-04-25T09:06:31;10.60;1.00
6174;DHT22;3120;48.796;9.796;2023-04-25T09:09:05;10.60;1.00
6174;DHT22;3120;48.796;9.796;2023-04-25T09:11:35;10.70;99.90
6174;DHT22;3120;48.796;9.796;2023-04-25T09:19:22;10.80;1.00
6174;DHT22;3120;48.796;9.796;2023-04-25T09:21:54;10.40;99.90
6174;DHT22;3120;48.796;9.796;2023-04-25T09:24:40;10.40;99.90
6174;DHT22;3120;48.796;9.796;2023-04-25T09:27:11;10.40;94.30
6174;DHT22;3120;48.796;9.796;2023-04-25T09:29:38;10.40;99.90
6174;DHT22;3120;48.796;9.796;2023-04-25T09:32:23;10.50;1.00
6174;DHT22;3120;48.796;9.796;2023-04-25T09:34:51;10.50;1.00
6174;DHT22;3120;48.796;9.796;2023-04-25T09:37:21;10.50;99.90
6174;DHT22;3120;48.796;9.796;2023-04-25T09:39:49;10.10;71.40
6174;DHT22;3120;48.796;9.796;2023-04-25T09:42:16;10.00;99.90
6174;DHT22;3120;48.796;9.796;2023-04-25T09:44:43;9.80;99.90
6174;DHT22;3120;48.796;9.796;2023-04-25T09:47:14;9.80;99.90
6174;DHT22;3120;48.796;9.796;2023-04-25T09:49:42;9.80;1.00
6174;DHT22;3120;48.796;9.796;2023-04-25T09:52:08;9.80;1.00
6174;DHT22;3120;48.796;9.796;2023-04-25T09:54:33;10.00;99.90
6174;DHT22;3120;48.796;9.796;2023-04-25T09:57:23;9.60;99.90
6174;DHT22;3120;48.796;9.796;2023-04-25T09:59:52;9.60;99.90
6174;DHT22;3120;48.796;9.796;2023-04-25T10:02:20;9.60;1.00
6174;DHT22;3120;48.796;9.796;2023-04-25T10:04:51;9.70;1.00
6174;DHT22;3120;48.796;9.796;2023-04-25T10:07:19;10.20;18.10
6174;DHT22;3120;48.796;9.796;2023-04-25T10:09:48;9.90;99.90
6174;DHT22;3120;48.796;9.796;2023-04-25T10:12:17;10.70;99.90
6174;DHT22;3120;48.796;9.796;2023-04-25T10:14:44;9.80;1.00
6174;DHT22;3120;48.796;9.796;2023-04-25T10:17:11;11.40;99.90
6174;DHT22;3120;48.796;9.796;2023-04-25T10:19:37;9.70;1.00
6174;DHT22;3120;48.796;9.796;2023-04-25T10:24:52;9.20;66.10
6174;DHT22;3120;48.796;9.796;2023-04-25T10:27:18;9.20;99.90
6174;DHT22;3120;48.796;9.796;2023-04-25T10:29:44;9.30;99.90
6174;DHT22;3120;48.796;9.796;2023-04-25T10:32:09;9.50;65.50
6174;DHT22;3120;48.796;9.796;2023-04-25T10:34:40;9.70;42.20
6174;DHT22;3120;48.796;9.796;2023-04-25T10:37:09;10.10;1.00
6174;DHT22;3120;48.796;9.796;2023-04-25T10:39:40;10.00;99.90
6174;DHT22;3120;48.796;9.796;2023-04-25T10:42:06;10.00;1.00
6174;DHT22;3120;48.796;9.796;2023-04-25T10:44:34;10.00;99.90
6174;DHT22;3120;48.796;9.796;2023-04-25T10:47:01;9.60;99.90
6174;DHT22;3120;48.796;9.796;2023-04-25T10:49:36;9.60;1.00
6174;DHT22;3120;48.796;9.796;2023-04-25T10:52:27;9.40;1.00
6174;DHT22;3120;48.796;9.796;2023-04-25T10:54:57;9.10;71.40
6174;DHT22;3120;48.796;9.796;2023-04-25T10:57:42;8.90;99.90
6174;DHT22;3120;48.796;9.796;2023-04-25T11:00:12;9.40;99.90
6174;DHT22;3120;48.796;9.796;2023-04-25T11:02:44;8.70;99.90
6174;DHT22;3120;48.796;9.796;2023-04-25T11:05:18;8.60;99.90
6174;DHT22;3120;48.796;9.796;2023-04-25T11:07:52;8.50;99.90
6174;DHT22;3120;48.796;9.796;2023-04-25T11:10:19;8.50;99.90
6174;DHT22;3120;48.796;9.796;2023-04-25T11:12:46;8.40;99.90
6174;DHT22;3120;48.796;9.796;2023-04-25T11:15:12;8.30;99.90
6174;DHT22;3120;48.796;9.796;2023-04-25T11:17:39;9.40;99.90
6174;DHT22;3120;48.796;9.796;2023-04-25T11:20:07;8.10;99.90
6174;DHT22;3120;48.796;9.796;2023-04-25T11:22:37;8.00;99.90
6174;DHT22;3120;48.796;9.796;2023-04-25T11:25:06;7.90;99.90
6174;DHT22;3120;48.796;9.796;2023-04-25T11:27:33;7.80;99.90
6174;DHT22;3120;48.796;9.796;2023-04-25T11:29:58;7.60;99.90
6174;DHT22;3120;48.796;9.796;2023-04-25T11:32:24;7.50;99.90
6174;DHT22;3120;48.796;9.796;2023-04-25T11:34:49;7.50;99.90
6174;DHT22;3120;48.796;9.796;2023-04-25T11:37:18;7.40;99.90
6174;DHT22;3120;48.796;9.796;2023-04-25T11:39:45;8.40;99.90
6174;DHT22;3120;48.796;9.796;2023-04-25T11:42:11;7.00;99.90
6174;DHT22;3120;48.796;9.796;2023-04-25T11:44:39;6.90;99.90
6174;DHT22;3120;48.796;9.796;2023-04-25T11:47:05;6.80;99.90
6174;DHT22;3120;48.796;9.796;2023-04-25T11:49:31;6.70;99.90
6174;DHT22;3120;48.796;9.796;2023-04-25T11:51:57;6.60;99.90
6174;DHT22;3120;48.796;9.796;2023-04-25T11:54:23;6.40;99.90
6174;DHT22;3120;48.796;9.796;2023-04-25T11:56:49;6.40;99.90
6174;DHT22;3120;48.796;9.796;2023-04-25T11:59:14;6.30;99.90
6174;DHT22;3120;48.796;9.796;2023-04-25T12:01:48;6.30;99.90
6174;DHT22;3120;48.796;9.796;2023-04-25T12:04:19;6.30;99.90
6174;DHT22;3120;48.796;9.796;2023-04-25T12:06:46;6.40;99.90
6174;DHT22;3120;48.796;9.796;2023-04-25T12:09:20;6.40;99.90
6174;DHT22;3120;48.796;9.796;2023-04-25T12:11:53;6.40;99.90
6174;DHT22;3120;48.796;9.796;2023-04-25T12:14:27;6.50;99.90
6174;DHT22;3120;48.796;9.796;2023-04-25T12:16:58;6.50;99.90
6174;DHT22;3120;48.796;9.796;2023-04-25T12:19:24;6.60;99.90
6174;DHT22;3120;48.796;9.796;2023-04-25T12:21:51;6.60;99.90
6174;DHT22;3120;48.796;9.796;2023-04-25T12:24:22;6.60;99.90
6174;DHT22;3120;48.796;9.796;2023-04-25T12:27:08;6.70;99.90
6174;DHT22;3120;48.796;9.796;2023-04-25T12:29:34;6.90;99.90
6174;DHT22;3120;48.796;9.796;2023-04-25T12:32:01;7.00;99.90
6174;DHT22;3120;48.796;9.796;2023-04-25T12:34:27;7.10;99.90
6174;DHT22;3120;48.796;9.796;2023-04-25T12:36:53;7.10;99.90
6174;DHT22;3120;48.796;9.796;2023-04-25T12:39:21;8.30;99.90
6174;DHT22;3120;48.796;9.796;2023-04-25T12:41:51;7.30;99.90
6174;DHT22;3120;48.796;9.796;2023-04-25T12:44:20;8.80;99.90
6174;DHT22;3120;48.796;9.796;2023-04-25T12:46:47;7.60;99.90
6174;DHT22;3120;48.796;9.796;2023-04-25T12:49:13;7.70;99.90
6174;DHT22;3120;48.796;9.796;2023-04-25T12:51:39;9.30;99.90
6174;DHT22;3120;48.796;9.796;2023-04-25T12:54:05;8.00;99.90
6174;DHT22;3120;48.796;9.796;2023-04-25T12:56:34;8.20;99.90
6174;DHT22;3120;48.796;9.796;2023-04-25T12:59:00;8.40;99.90
6174;DHT22;3120;48.796;9.796;2023-04-25T13:01:26;8.60;99.90
6174;DHT22;3120;48.796;9.796;2023-04-25T13:03:52;8.70;99.90
6174;DHT22;3120;48.796;9.796;2023-04-25T13:06:19;9.80;99.90
6174;DHT22;3120;48.796;9.796;2023-04-25T13:08:45;10.30;99.90
6174;DHT22;3120;48.796;9.796;2023-04-25T13:11:11;9.00;99.90
6174;DHT22;3120;48.796;9.796;2023-04-25T13:13:37;9.20;99.90
6174;DHT22;3120;48.796;9.796;2023-04-25T13:16:07;9.50;99.90
6174;DHT22;3120;48.796;9.796;2023-04-25T13:18:33;10.60;99.90
6174;DHT22;3120;48.796;9.796;2023-04-25T13:20:59;9.50;99.90
6174;DHT22;3120;48.796;9.796;2023-04-25T13:23:34;9.50;24.50
6174;DHT22;3120;48.796;9.796;2023-04-25T13:25:59;9.20;1.00
6174;DHT22;3120;48.796;9.796;2023-04-25T13:28:27;9.90;1.00
6174;DHT22;3120;48.796;9.796;2023-04-25T13:30:53;9.20;1.00
6174;DHT22;3120;48.796;9.796;2023-04-25T13:33:19;9.30;17.30
6174;DHT22;3120;48.796;9.796;2023-04-25T13:35:46;10.40;1.00
6174;DHT22;3120;48.796;9.796;2023-04-25T13:38:19;9.50;47.10
6174;DHT22;3120;48.796;9.796;2023-04-25T13:40:45;9.50;1.00
6174;DHT22;3120;48.796;9.796;2023-04-25T13:43:10;9.60;1.00
6174;DHT22;3120;48.796;9.796;2023-04-25T13:45:36;9.70;70.00
6174;DHT22;3120;48.796;9.796;2023-04-25T13:48:02;9.80;1.00
6174;DHT22;3120;48.796;9.796;2023-04-25T13:52:58;9.90;1.00
6174;DHT22;3120;48.796;9.796;2023-04-25T13:55:24;9.90;99.90
6174;DHT22;3120;48.796;9.796;2023-04-25T13:57:50;9.80;1.00
6174;DHT22;3120;48.796;9.796;2023-04-25T14:00:16;10.00;1.00
6174;DHT22;3120;48.796;9.796;2023-04-25T14:02:41;9.90;1.00
6174;DHT22;3120;48.796;9.796;2023-04-25T14:05:07;10.00;1.00
6174;DHT22;3120;48.796;9.796;2023-04-25T14:07:34;10.10;1.00
6174;DHT22;3120;48.796;9.796;2023-04-25T14:10:01;12.10;1.00
6174;DHT22;3120;48.796;9.796;2023-04-25T14:12:27;10.00;1.00
6174;DHT22;3120;48.796;9.796;2023-04-25T14:14:52;9.80;1.00
6174;DHT22;3120;48.796;9.796;2023-04-25T14:17:21;9.70;1.00
6174;DHT22;3120;48.796;9.796;2023-04-25T14:19:46;9.50;1.00
6174;DHT22;3120;48.796;9.796;2023-04-25T14:22:13;9.60;6.70
6174;DHT22;3120;48.796;9.796;2023-04-25T14:24:42;11.20;99.90
6174;DHT22;3120;48.796;9.796;2023-04-25T14:27:08;9.20;99.90
6174;DHT22;3120;48.796;9.796;2023-04-25T14:29:34;9.10;99.90
6174;DHT22;3120;48.796;9.796;2023-04-25T14:31:59;9.10;99.90
6174;DHT22;3120;48.796;9.796;2023-04-25T14:34:27;8.90;99.90
6174;DHT22;3120;48.796;9.796;2023-04-25T14:36:52;9.00;99.90
6174;DHT22;3120;48.796;9.796;2023-04-25T14:39:18;11.10;99.90
6174;DHT22;3120;48.796;9.796;2023-04-25T14:41:44;9.10;99.90
6174;DHT22;3120;48.796;9.796;2023-04-25T14:44:10;9.20;99.90
6174;DHT22;3120;48.796;9.796;2023-04-25T14:46:36;9.60;99.90
6174;DHT22;3120;48.796;9.796;2023-04-25T14:49:02;10.20;1.00
6174;DHT22;3120;48.796;9.796;2023-04-25T14:51:28;10.70;1.00
6174;DHT22;3120;48.796;9.796;2023-04-25T14:53:54;10.10;1.00
6174;DHT22;3120;48.796;9.796;2023-04-25T14:56:20;10.90;1.00
6174;DHT22;3120;48.796;9.796;2023-04-25T14:58:45;10.40;99.90
6174;DHT22;3120;48.796;9.796;2023-04-25T15:01:11;10.90;1.00
6174;DHT22;3120;48.796;9.796;2023-04-25T15:03:39;9.80;1.00
6174;DHT22;3120;48.796;9.796;2023-04-25T15:06:05;9.70;1.00
6174;DHT22;3120;48.796;9.796;2023-04-25T15:08:31;9.50;1.00
6174;DHT22;3120;48.796;9.796;2023-04-25T15:10:58;9.40;44.10
6174;DHT22;3120;48.796;9.796;2023-04-25T15:13:24;9.20;91.00
6174;DHT22;3120;48.796;9.796;2023-04-25T15:15:50;9.20;99.90
6174;DHT22;3120;48.796;9.796;2023-04-25T15:18:17;9.20;99.90
6174;DHT22;3120;48.796;9.796;2023-04-25T15:20:43;9.10;99.90
6174;DHT22;3120;48.796;9.796;2023-04-25T15:23:18;8.80;93.10
6174;DHT22;3120;48.796;9.796;2023-04-25T15:25:44;8.40;1.00
6174;DHT22;3120;48.796;9.796;2023-04-25T15:28:09;8.20;1.00
6174;DHT22;3120;48.796;9.796;2023-04-25T15:30:35;8.10;1.00
6174;DHT22;3120;48.796;9.796;2023-04-25T15:33:01;8.10;1.00
6174;DHT22;3120;48.796;9.796;2023-04-25T15:35:26;8.00;1.00
6174;DHT22;3120;48.796;9.796;2023-04-25T15:37:52;7.80;24.30
6174;DHT22;3120;48.796;9.796;2023-04-25T15:40:17;7.90;94.50
6174;DHT22;3120;48.796;9.796;2023-04-25T15:42:48;8.40;8.20
6174;DHT22;3120;48.796;9.796;2023-04-25T15:45:21;9.20;93.20
6174;DHT22;3120;48.796;9.796;2023-04-25T15:47:49;8.10;27.90
6174;DHT22;3120;48.796;9.796;2023-04-25T15:50:15;8.10;99.20
6174;DHT22;3120;48.796;9.796;2023-04-25T15:52:47;8.00;99.60
6174;DHT22;3120;48.796;9.796;2023-04-25T15:55:13;8.00;99.90
6174;DHT22;3120;48.796;9.796;2023-04-25T15:57:40;8.00;34.20
6174;DHT22;3120;48.796;9.796;2023-04-25T16:00:07;7.80;84.60
6174;DHT22;3120;48.796;9.796;2023-04-25T16:02:38;7.70;99.90
6174;DHT22;3120;48.796;9.796;2023-04-25T16:05:04;7.50;99.90
6174;DHT22;3120;48.796;9.796;2023-04-25T16:07:29;7.60;99.90
6174;DHT22;3120;48.796;9.796;2023-04-25T16:09:55;7.60;99.90
6174;DHT22;3120;48.796;9.796;2023-04-25T16:12:21;7.60;99.90
6174;DHT22;3120;48.796;9.796;2023-04-25T16:14:46;7.60;99.90
6174;DHT22;3120;48.796;9.796;2023-04-25T16:17:15;7.50;99.90
6174;DHT22;3120;48.796;9.796;2023-04-25T16:19:40;7.50;99.90
6174;DHT22;3120;48.796;9.796;2023-04-25T16:22:06;7.40;99.90
6174;DHT22;3120;48.796;9.796;2023-04-25T16:24:34;7.30;99.90
6174;DHT22;3120;48.796;9.796;2023-04-25T16:27:08;7.20;99.90